Terminal Aerodrome Forecast
Issued by NWS

Home | Current Version | Previous Version | Text Only | Print | Product List | Glossary On
Versions: 1 2 3 4 5 6 7 8 9 10 11 12 13 14 15 16 17 18 19
000
FTUS42 KGSP 022028 AAA
TAFGMU
TAF AMD
KGMU 022028Z 0220/0318 21010KT P6SM VCSH FEW040
     FM030100 24008KT P6SM OVC100
     FM031500 23012KT P6SM VCSH BKN060 PROB30 0316/0318 4SM TSRA
      BKN040CB=

USA.gov is the U.S. government's official web portal to all federal, state and local government web resources and services.